Cameron, Illinois
Current Conditions -  °F | °C
As of 3:35 PM on Thursday 18 Dec 2014 (Local Time) from KGBG Reporting Station
Clear Clear  
Wind Chill: 27°   Ceiling: Unl
Heat Index: 27°   Visibility: 10mi
Dew Point: 20°   Wind: 3mph
Humidity: 75%   Direction: 320°NW
Pressure: 30.24"   Gusts: NA
Location:  40.89°N, 90.52°W
Report Text: KGBG 182135Z AUTO 32003KT 10SM CLR M03/M07 A3024 RMK AO2 T10271066
Loading
Personal Weather Stations






























Interactive Weather Map New forecast layout! Learn more

10-Day Weather Forecast

Advertisements
Track Severe Weather on mobile